createdAt,value
2023-06-11T00:02:09.994Z,22.17
2023-06-11T00:04:38.651Z,19.13
2023-06-11T00:07:06.715Z,25.40
2023-06-11T00:09:34.567Z,25.50
2023-06-11T00:12:02.242Z,20.27
2023-06-11T00:14:30.033Z,26.60
2023-06-11T00:16:58.082Z,20.17
2023-06-11T00:19:30.083Z,28.90
2023-06-11T00:21:58.146Z,27.67
2023-06-11T00:24:26.542Z,25.15
2023-06-11T00:26:54.236Z,29.42
2023-06-11T00:29:22.114Z,25.45
2023-06-11T00:31:49.767Z,22.65
2023-06-11T00:34:17.626Z,21.05
2023-06-11T00:36:45.313Z,25.77
2023-06-11T00:39:13.564Z,22.00
2023-06-11T00:41:46.740Z,25.15
2023-06-11T00:44:22.931Z,25.58
2023-06-11T00:46:52.903Z,30.00
2023-06-11T00:49:21.561Z,20.75
2023-06-11T00:51:49.089Z,26.13
2023-06-11T00:54:19.857Z,23.30
2023-06-11T00:56:47.662Z,20.75
2023-06-11T00:59:20.951Z,24.02
2023-06-11T01:02:18.288Z,22.20
2023-06-11T01:04:48.046Z,20.38
2023-06-11T01:07:17.844Z,23.52
2023-06-11T01:09:46.660Z,22.42
2023-06-11T01:12:14.158Z,23.15
2023-06-11T01:14:41.554Z,24.40
2023-06-11T01:17:18.768Z,25.42
2023-06-11T01:20:11.154Z,24.13
2023-06-11T01:23:06.631Z,21.17
2023-06-11T01:26:13.716Z,25.73
2023-06-11T01:28:42.345Z,25.60
2023-06-11T01:31:13.566Z,19.10
2023-06-11T01:33:43.330Z,21.55
2023-06-11T01:38:46.085Z,26.10
2023-06-11T01:41:19.374Z,29.90
2023-06-11T01:43:47.563Z,24.60
2023-06-11T01:46:15.740Z,23.40
2023-06-11T01:48:43.332Z,26.30
2023-06-11T01:51:11.016Z,22.83
2023-06-11T01:53:38.553Z,23.98
2023-06-11T01:56:06.184Z,23.85
2023-06-11T01:58:34.720Z,23.27
2023-06-11T02:01:03.350Z,23.25
2023-06-11T02:03:31.339Z,22.33
2023-06-11T02:05:59.011Z,24.42
2023-06-11T02:08:27.624Z,20.75
2023-06-11T02:10:55.732Z,20.70
2023-06-11T02:13:23.292Z,23.63
2023-06-11T02:15:51.001Z,24.00
2023-06-11T02:18:18.632Z,23.20
2023-06-11T02:20:46.289Z,20.77
2023-06-11T02:23:14.187Z,18.35
2023-06-11T02:25:42.027Z,21.27
2023-06-11T02:28:11.317Z,18.77
2023-06-11T02:30:39.042Z,20.27
2023-06-11T02:33:08.219Z,21.17
2023-06-11T02:35:37.060Z,17.15
2023-06-11T02:38:04.610Z,24.73
2023-06-11T02:40:32.308Z,25.63
2023-06-11T02:43:00.150Z,17.50
2023-06-11T02:45:27.867Z,19.63
2023-06-11T02:47:55.660Z,21.02
2023-06-11T02:50:23.415Z,18.60
2023-06-11T02:52:51.072Z,18.95
2023-06-11T02:55:18.903Z,21.25
2023-06-11T02:57:47.286Z,18.25
2023-06-11T03:00:15.197Z,19.42
2023-06-11T03:02:43.082Z,15.10
2023-06-11T03:05:11.296Z,22.33
2023-06-11T03:07:39.844Z,19.40
2023-06-11T03:10:10.699Z,21.30
2023-06-11T03:12:38.288Z,19.67
2023-06-11T03:15:06.940Z,20.27
2023-06-11T03:17:36.157Z,20.88
2023-06-11T03:20:03.947Z,30.27
2023-06-11T03:22:31.853Z,22.50
2023-06-11T03:24:59.625Z,22.67
2023-06-11T03:27:33.087Z,25.30
2023-06-11T03:30:01.556Z,18.88
2023-06-11T03:32:31.178Z,19.50
2023-06-11T03:34:58.962Z,17.95
2023-06-11T03:37:27.194Z,21.73
2023-06-11T03:40:00.142Z,21.00
2023-06-11T03:42:30.077Z,22.90
2023-06-11T03:44:58.187Z,25.33
2023-06-11T03:47:27.855Z,26.98
2023-06-11T03:49:55.737Z,17.40
2023-06-11T03:52:23.431Z,17.98
2023-06-11T03:54:51.251Z,17.83
2023-06-11T03:57:20.155Z,20.40
2023-06-11T03:59:48.126Z,21.77
2023-06-11T04:02:16.391Z,19.75
2023-06-11T04:04:44.385Z,18.73
2023-06-11T04:07:12.733Z,24.13
2023-06-11T04:09:41.369Z,22.00
2023-06-11T04:12:09.602Z,19.05
2023-06-11T04:14:37.937Z,18.67
2023-06-11T04:17:06.274Z,24.10
2023-06-11T04:19:33.998Z,22.08
2023-06-11T04:22:01.807Z,20.67
2023-06-11T04:24:29.725Z,19.00
2023-06-11T04:26:58.211Z,19.77
2023-06-11T04:29:30.772Z,23.70
2023-06-11T04:32:04.212Z,19.77
2023-06-11T04:34:35.286Z,22.27
2023-06-11T04:37:03.041Z,20.47
2023-06-11T04:39:31.505Z,25.08
2023-06-11T04:42:03.255Z,21.45
2023-06-11T04:44:33.321Z,20.60
2023-06-11T04:47:06.411Z,23.92
2023-06-11T04:49:36.078Z,19.55
2023-06-11T04:52:04.157Z,23.20
2023-06-11T04:54:32.848Z,22.75
2023-06-11T04:57:04.209Z,28.73
2023-06-11T04:59:32.175Z,19.60
2023-06-11T05:02:00.395Z,27.00
2023-06-11T05:04:29.440Z,23.73
2023-06-11T05:07:01.364Z,21.67
2023-06-11T05:09:30.235Z,24.45
2023-06-11T05:11:57.953Z,23.50
2023-06-11T05:14:25.983Z,17.35
2023-06-11T05:16:54.386Z,23.05
2023-06-11T05:19:22.335Z,21.58
2023-06-11T05:21:50.526Z,23.23
2023-06-11T05:24:22.189Z,25.35
2023-06-11T05:26:57.685Z,21.00
2023-06-11T05:29:26.873Z,22.48
2023-06-11T05:31:57.608Z,22.40
2023-06-11T05:34:27.097Z,25.63
2023-06-11T05:36:56.817Z,21.83
2023-06-11T05:39:25.118Z,22.90
2023-06-11T05:41:53.019Z,22.80
2023-06-11T05:44:23.148Z,29.13
2023-06-11T05:46:51.692Z,28.88
2023-06-11T05:49:20.125Z,32.17
2023-06-11T05:51:48.632Z,26.52
2023-06-11T05:54:16.372Z,29.90
2023-06-11T05:56:45.475Z,24.73
2023-06-11T05:59:14.074Z,28.35
2023-06-11T06:01:46.509Z,25.08
2023-06-11T06:04:17.274Z,33.70
2023-06-11T06:06:45.557Z,28.10
2023-06-11T06:09:15.487Z,29.38
2023-06-11T06:11:44.267Z,24.23
2023-06-11T06:14:12.077Z,31.50
2023-06-11T06:16:41.429Z,23.52
2023-06-11T06:19:13.700Z,27.33
2023-06-11T06:21:41.236Z,27.40
2023-06-11T06:24:09.402Z,25.15
2023-06-11T06:26:41.808Z,23.75
2023-06-11T06:29:10.211Z,25.10
2023-06-11T06:31:41.792Z,22.65
2023-06-11T06:34:09.896Z,26.15
2023-06-11T06:36:38.400Z,29.42
2023-06-11T06:39:06.941Z,32.22
2023-06-11T06:41:35.128Z,27.67
2023-06-11T06:44:10.442Z,29.25
2023-06-11T06:46:37.919Z,26.02
2023-06-11T06:49:05.811Z,24.33
2023-06-11T06:51:33.961Z,29.55
2023-06-11T06:54:02.152Z,29.63
2023-06-11T06:56:30.610Z,31.40
2023-06-11T06:58:58.071Z,32.60
2023-06-11T07:01:25.663Z,25.48
2023-06-11T07:03:53.476Z,23.67
2023-06-11T07:06:21.656Z,25.88
2023-06-11T07:08:49.140Z,23.38
2023-06-11T07:11:17.038Z,28.20
2023-06-11T07:13:47.128Z,23.92
2023-06-11T07:16:15.926Z,23.88
2023-06-11T07:18:52.878Z,25.40
2023-06-11T07:21:20.629Z,31.02
2023-06-11T07:23:48.383Z,26.27
2023-06-11T07:26:16.952Z,30.50
2023-06-11T07:28:46.937Z,27.85
2023-06-11T07:31:14.999Z,30.35
2023-06-11T07:33:45.923Z,27.70
2023-06-11T07:36:13.866Z,32.42
2023-06-11T07:38:43.869Z,22.52
2023-06-11T07:41:12.724Z,26.17
2023-06-11T07:43:40.771Z,27.55
2023-06-11T07:46:11.202Z,23.90
2023-06-11T07:48:42.775Z,25.42
2023-06-11T07:51:10.735Z,28.45
2023-06-11T07:53:40.576Z,29.50
2023-06-11T07:56:09.155Z,30.35
2023-06-11T07:58:37.319Z,26.63
2023-06-11T08:01:05.081Z,27.92
2023-06-11T08:03:32.699Z,30.10
2023-06-11T08:06:00.434Z,26.63
2023-06-11T08:08:27.982Z,25.38
2023-06-11T08:10:56.724Z,23.73
2023-06-11T08:13:24.660Z,22.27
2023-06-11T08:15:52.391Z,30.45
2023-06-11T08:18:20.555Z,20.42
2023-06-11T08:20:48.371Z,22.42
2023-06-11T08:23:15.993Z,20.25
2023-06-11T08:25:44.389Z,22.98
2023-06-11T08:28:12.424Z,26.30
2023-06-11T08:30:40.290Z,21.27
2023-06-11T08:33:08.104Z,22.75
2023-06-11T08:35:35.865Z,20.80
2023-06-11T08:38:03.526Z,22.90
2023-06-11T08:40:31.968Z,22.15
2023-06-11T08:42:59.983Z,25.75
2023-06-11T08:45:27.636Z,24.35
2023-06-11T08:48:02.302Z,24.00
2023-06-11T08:50:32.428Z,20.75
2023-06-11T08:53:04.194Z,21.52
2023-06-11T08:55:32.024Z,21.88
2023-06-11T08:57:59.960Z,22.20
2023-06-11T09:00:27.464Z,24.13
2023-06-11T09:02:55.825Z,17.98
2023-06-11T09:05:24.325Z,28.08
2023-06-11T09:07:52.628Z,17.55
2023-06-11T09:10:21.858Z,27.83
2023-06-11T09:12:49.939Z,21.30
2023-06-11T09:15:18.744Z,19.92
2023-06-11T09:17:47.997Z,24.48
2023-06-11T09:20:17.043Z,21.52
2023-06-11T09:22:45.987Z,18.20
2023-06-11T09:25:18.128Z,16.40
2023-06-11T09:27:48.133Z,22.65
2023-06-11T09:30:18.201Z,17.42
2023-06-11T09:32:47.772Z,20.27
2023-06-11T09:35:20.295Z,18.98
2023-06-11T09:37:53.669Z,19.38
2023-06-11T09:40:24.643Z,14.43
2023-06-11T09:42:53.039Z,15.82
2023-06-11T09:45:22.353Z,18.10
2023-06-11T09:47:52.339Z,14.60
2023-06-11T09:50:21.138Z,17.40
2023-06-11T09:52:49.419Z,18.63
2023-06-11T09:55:16.925Z,16.30
2023-06-11T09:57:44.587Z,15.23
2023-06-11T10:00:14.563Z,14.05
2023-06-11T10:02:43.852Z,16.23
2023-06-11T10:05:14.093Z,13.65
2023-06-11T10:07:50.163Z,19.70
2023-06-11T10:10:22.050Z,23.08
2023-06-11T10:12:52.017Z,16.58
2023-06-11T10:15:23.084Z,16.17
2023-06-11T10:17:52.457Z,15.05
2023-06-11T10:20:32.970Z,22.08
2023-06-11T10:25:41.780Z,17.33
2023-06-11T10:28:10.745Z,16.08
2023-06-11T10:30:38.928Z,20.15
2023-06-11T10:33:06.723Z,14.02
2023-06-11T10:35:34.793Z,20.00
2023-06-11T10:38:05.122Z,17.17
2023-06-11T10:40:34.294Z,13.90
2023-06-11T10:43:05.667Z,16.63
2023-06-11T10:45:49.450Z,16.35
2023-06-11T10:48:28.578Z,13.15
2023-06-11T10:51:09.288Z,22.65
2023-06-11T10:53:42.094Z,16.52
2023-06-11T10:56:13.483Z,15.00
2023-06-11T10:58:42.045Z,17.13
2023-06-11T11:01:10.340Z,18.25
2023-06-11T11:03:40.555Z,15.23
2023-06-11T11:06:10.026Z,18.95
2023-06-11T11:08:38.437Z,13.90
2023-06-11T11:11:06.189Z,13.77
2023-06-11T11:13:34.992Z,14.25
2023-06-11T11:16:03.640Z,13.43
2023-06-11T11:18:31.471Z,14.50
2023-06-11T11:20:59.910Z,16.52
2023-06-11T11:23:27.576Z,19.50
2023-06-11T11:25:55.091Z,18.13
2023-06-11T11:28:22.790Z,13.18
2023-06-11T11:30:54.142Z,12.18
2023-06-11T11:33:22.080Z,16.13
2023-06-11T11:35:54.646Z,11.65
2023-06-11T11:38:25.444Z,16.20
2023-06-11T11:40:57.363Z,12.60
2023-06-11T11:43:25.162Z,12.20
2023-06-11T11:45:54.355Z,19.88
2023-06-11T11:48:22.390Z,12.95
2023-06-11T11:51:07.141Z,11.95
2023-06-11T11:53:35.441Z,12.73
2023-06-11T11:56:07.153Z,14.40
2023-06-11T11:58:39.730Z,14.13
2023-06-11T12:01:11.884Z,12.50
2023-06-11T12:03:39.539Z,15.25
2023-06-11T12:06:09.541Z,13.27
2023-06-11T12:08:38.037Z,13.25
2023-06-11T12:11:07.859Z,13.50
2023-06-11T12:13:36.434Z,18.77
2023-06-11T12:16:05.224Z,16.40
2023-06-11T12:18:34.418Z,12.90
2023-06-11T12:21:02.112Z,24.52
2023-06-11T12:23:30.121Z,11.85
2023-06-11T12:25:57.742Z,18.63
2023-06-11T12:28:26.544Z,11.57
2023-06-11T12:30:54.223Z,9.93
2023-06-11T12:33:21.884Z,10.85
2023-06-11T12:35:50.953Z,11.55
2023-06-11T12:38:19.641Z,14.57
2023-06-11T12:40:47.445Z,13.90
2023-06-11T12:43:14.969Z,12.65
2023-06-11T12:45:42.570Z,12.35
2023-06-11T12:48:10.512Z,13.07
2023-06-11T12:50:38.502Z,13.25
2023-06-11T12:53:06.019Z,13.80
2023-06-11T12:55:33.575Z,15.00
2023-06-11T12:58:01.569Z,12.68
2023-06-11T13:00:31.319Z,10.20
2023-06-11T13:02:59.341Z,14.38
2023-06-11T13:05:27.818Z,12.40
2023-06-11T13:07:55.371Z,10.27
2023-06-11T13:10:25.037Z,12.10
2023-06-11T13:15:24.024Z,13.57
2023-06-11T13:17:52.051Z,11.40
2023-06-11T13:20:21.941Z,12.63
2023-06-11T13:22:50.242Z,12.27
2023-06-11T13:25:17.966Z,9.55
2023-06-11T13:27:45.538Z,9.32
2023-06-11T13:30:13.782Z,11.77
2023-06-11T13:32:41.789Z,9.95
2023-06-11T13:35:09.920Z,10.82
2023-06-11T13:37:37.978Z,9.15
2023-06-11T13:40:06.515Z,11.32
2023-06-11T13:42:34.371Z,9.30
2023-06-11T13:45:06.292Z,11.90
2023-06-11T13:47:33.996Z,12.15
2023-06-11T13:50:01.997Z,9.00
2023-06-11T13:52:29.873Z,10.90
2023-06-11T13:54:57.481Z,12.88
2023-06-11T13:57:28.965Z,9.68
2023-06-11T13:59:57.109Z,9.88
2023-06-11T14:02:25.026Z,11.73
2023-06-11T14:04:54.517Z,9.80
2023-06-11T14:07:22.405Z,12.43
2023-06-11T14:09:50.697Z,14.43
2023-06-11T14:12:18.537Z,12.15
2023-06-11T14:14:46.249Z,10.48
2023-06-11T14:17:13.830Z,14.75
2023-06-11T14:19:41.442Z,11.07
2023-06-11T14:22:09.495Z,11.07
2023-06-11T14:24:37.097Z,8.80
2023-06-11T14:27:06.536Z,13.13
2023-06-11T14:29:34.063Z,13.82
2023-06-11T14:32:03.700Z,9.00
2023-06-11T14:34:31.964Z,11.20
2023-06-11T14:36:59.520Z,13.00
2023-06-11T14:39:27.119Z,12.23
2023-06-11T14:41:54.912Z,11.95
2023-06-11T14:44:23.228Z,10.40
2023-06-11T14:46:51.847Z,10.55
2023-06-11T14:49:21.388Z,12.40
2023-06-11T14:51:49.561Z,11.85
2023-06-11T14:54:17.805Z,10.68
2023-06-11T14:56:45.352Z,12.68
2023-06-11T14:59:13.068Z,11.20
2023-06-11T15:01:42.622Z,11.07
2023-06-11T15:04:12.495Z,16.23
2023-06-11T15:06:42.183Z,12.63
2023-06-11T15:09:10.075Z,14.02
2023-06-11T15:11:37.780Z,16.00
2023-06-11T15:14:06.196Z,13.48
2023-06-11T15:16:33.996Z,16.27
2023-06-11T15:19:03.825Z,10.98
2023-06-11T15:21:32.219Z,13.20
2023-06-11T15:23:59.723Z,11.55
2023-06-11T15:26:27.296Z,10.45
2023-06-11T15:28:55.027Z,12.90
2023-06-11T15:31:22.828Z,14.82
2023-06-11T15:33:50.493Z,10.32
2023-06-11T15:36:18.017Z,11.02
2023-06-11T15:38:45.666Z,8.77
2023-06-11T15:41:16.077Z,11.43
2023-06-11T15:43:44.190Z,13.40
2023-06-11T15:46:11.858Z,11.35
2023-06-11T15:48:39.414Z,14.40
2023-06-11T15:51:06.856Z,12.68
2023-06-11T15:53:34.490Z,12.85
2023-06-11T15:56:02.770Z,14.43
2023-06-11T15:58:30.289Z,27.90
2023-06-11T16:00:57.844Z,13.80
2023-06-11T16:03:25.702Z,17.52
2023-06-11T16:05:53.509Z,15.02
2023-06-11T16:08:20.990Z,14.90
2023-06-11T16:10:49.108Z,16.63
2023-06-11T16:13:16.741Z,25.92
2023-06-11T16:15:45.099Z,22.25
2023-06-11T16:18:12.878Z,16.75
2023-06-11T16:20:40.831Z,21.38
2023-06-11T16:23:08.535Z,15.55
2023-06-11T16:25:36.135Z,16.08
2023-06-11T16:28:04.030Z,13.23
2023-06-11T16:30:31.938Z,14.13
2023-06-11T16:33:00.167Z,12.95
2023-06-11T16:35:28.203Z,21.02
2023-06-11T16:37:55.806Z,16.73
2023-06-11T16:40:23.488Z,15.82
2023-06-11T16:42:50.959Z,13.43
2023-06-11T16:45:18.579Z,13.48
2023-06-11T16:47:47.752Z,14.30
2023-06-11T16:50:15.601Z,16.88
2023-06-11T16:52:43.499Z,16.00
2023-06-11T16:55:12.011Z,18.23
2023-06-11T16:57:39.746Z,18.25
2023-06-11T17:00:07.987Z,15.00
2023-06-11T17:02:36.176Z,15.02
2023-06-11T17:05:04.263Z,18.20
2023-06-11T17:07:32.034Z,18.00
2023-06-11T17:09:59.578Z,18.88
2023-06-11T17:12:27.400Z,20.67
2023-06-11T17:14:55.439Z,17.10
2023-06-11T17:17:23.172Z,17.88
2023-06-11T17:19:51.526Z,16.52
2023-06-11T17:22:19.296Z,18.67
2023-06-11T17:24:48.953Z,20.35
2023-06-11T17:27:19.793Z,17.50
2023-06-11T17:29:47.522Z,15.10
2023-06-11T17:32:15.263Z,14.05
2023-06-11T17:34:42.769Z,16.15
2023-06-11T17:37:10.980Z,17.23
2023-06-11T17:39:38.536Z,16.90
2023-06-11T17:42:06.619Z,19.85
2023-06-11T17:44:34.395Z,21.35
2023-06-11T17:47:01.924Z,17.38
2023-06-11T17:49:29.468Z,19.65
2023-06-11T17:51:57.161Z,15.57
2023-06-11T17:54:24.819Z,13.10
2023-06-11T17:56:52.435Z,13.43
2023-06-11T17:59:21.178Z,15.07
2023-06-11T18:01:48.747Z,15.32
2023-06-11T18:04:16.739Z,12.43
2023-06-11T18:06:44.292Z,13.55
2023-06-11T18:09:15.148Z,15.15
2023-06-11T18:11:43.873Z,15.80
2023-06-11T18:14:11.490Z,17.52
2023-06-11T18:16:38.978Z,17.63
2023-06-11T18:19:06.640Z,18.02
2023-06-11T18:21:34.173Z,21.50
2023-06-11T18:24:01.760Z,21.27
2023-06-11T18:26:29.380Z,19.50
2023-06-11T18:28:56.853Z,20.63
2023-06-11T18:31:25.378Z,17.55
2023-06-11T18:33:55.052Z,21.52
2023-06-11T18:36:23.051Z,18.20
2023-06-11T18:38:50.603Z,19.80
2023-06-11T18:41:20.782Z,16.88
2023-06-11T18:43:48.901Z,14.60
2023-06-11T18:46:16.480Z,19.00
2023-06-11T18:48:44.145Z,15.90
2023-06-11T18:51:11.817Z,17.38
2023-06-11T18:53:39.279Z,15.32
2023-06-11T18:56:07.331Z,26.33
2023-06-11T18:58:35.021Z,16.38
2023-06-11T19:01:02.978Z,16.10
2023-06-11T19:03:32.588Z,17.33
2023-06-11T19:08:28.684Z,15.23
2023-06-11T19:10:56.257Z,17.65
2023-06-11T19:13:23.732Z,19.27
2023-06-11T19:15:51.309Z,18.55
2023-06-11T19:18:18.946Z,16.85
2023-06-11T19:20:47.021Z,15.88
2023-06-11T19:23:15.809Z,17.85
2023-06-11T19:25:43.441Z,20.05
2023-06-11T19:28:10.930Z,16.70
2023-06-11T19:30:38.767Z,19.52
2023-06-11T19:33:06.366Z,16.55
2023-06-11T19:35:34.049Z,16.15
2023-06-11T19:38:01.586Z,21.52
2023-06-11T19:40:29.262Z,18.77
2023-06-11T19:42:56.867Z,14.85
2023-06-11T19:45:24.426Z,20.40
2023-06-11T19:47:52.218Z,23.98
2023-06-11T19:50:27.009Z,17.67
2023-06-11T19:52:54.647Z,18.15
2023-06-11T19:55:24.135Z,19.25
2023-06-11T19:57:51.621Z,19.08
2023-06-11T20:00:20.457Z,19.20
2023-06-11T20:02:48.870Z,18.48
2023-06-11T20:05:16.448Z,18.40
2023-06-11T20:07:44.017Z,18.10
2023-06-11T20:10:11.859Z,18.40
2023-06-11T20:12:39.600Z,16.00
2023-06-11T20:15:07.908Z,18.38
2023-06-11T20:17:35.749Z,16.17
2023-06-11T20:20:03.629Z,22.10
2023-06-11T20:22:32.491Z,20.23
2023-06-11T20:24:59.952Z,17.15
2023-06-11T20:27:27.493Z,17.25
2023-06-11T20:29:54.978Z,18.30
2023-06-11T20:32:23.089Z,16.60
2023-06-11T20:34:50.611Z,19.42
2023-06-11T20:37:18.208Z,20.02
2023-06-11T20:39:45.777Z,16.80
2023-06-11T20:42:15.091Z,17.05
2023-06-11T20:44:42.676Z,18.17
2023-06-11T20:47:10.542Z,16.75
2023-06-11T20:49:39.306Z,19.80
2023-06-11T20:52:07.418Z,17.55
2023-06-11T20:54:35.864Z,19.15
2023-06-11T20:57:03.526Z,19.55
2023-06-11T20:59:32.578Z,23.73
2023-06-11T21:02:00.273Z,21.88
2023-06-11T21:04:28.211Z,23.95
2023-06-11T21:06:56.147Z,25.88
2023-06-11T21:09:23.704Z,23.20
2023-06-11T21:11:56.040Z,23.60
2023-06-11T21:14:24.177Z,25.13
2023-06-11T21:16:51.935Z,23.38
2023-06-11T21:19:20.083Z,32.63
2023-06-11T21:21:47.644Z,31.85
2023-06-11T21:24:15.516Z,31.17
2023-06-11T21:26:43.330Z,32.83
2023-06-11T21:29:11.041Z,37.83
2023-06-11T21:31:38.767Z,39.15
2023-06-11T21:34:06.310Z,35.53
2023-06-11T21:36:33.868Z,33.60
2023-06-11T21:39:01.848Z,35.58
2023-06-11T21:41:29.836Z,33.90
2023-06-11T21:43:58.548Z,30.98
2023-06-11T21:46:26.224Z,32.53
2023-06-11T21:48:53.822Z,31.52
2023-06-11T21:51:21.889Z,32.05
2023-06-11T21:53:49.415Z,33.15
2023-06-11T21:56:17.319Z,35.47
2023-06-11T21:58:44.964Z,38.40
2023-06-11T22:01:12.552Z,45.53
2023-06-11T22:03:40.137Z,41.28
2023-06-11T22:06:09.444Z,41.95
2023-06-11T22:08:37.923Z,38.47
2023-06-11T22:11:05.438Z,36.88
2023-06-11T22:13:33.914Z,44.20
2023-06-11T22:16:01.664Z,38.20
2023-06-11T22:18:29.737Z,39.58
2023-06-11T22:20:58.089Z,36.67
2023-06-11T22:23:40.887Z,39.13
2023-06-11T22:26:14.472Z,34.25
2023-06-11T22:28:42.078Z,35.75
2023-06-11T22:31:09.797Z,36.05
2023-06-11T22:33:38.058Z,45.42
2023-06-11T22:36:06.121Z,34.08
2023-06-11T22:38:33.818Z,40.30
2023-06-11T22:41:01.495Z,36.25
2023-06-11T22:43:29.460Z,40.55
2023-06-11T22:45:57.126Z,38.63
2023-06-11T22:48:24.755Z,46.28
2023-06-11T22:50:53.937Z,46.55
2023-06-11T22:53:22.629Z,48.60
2023-06-11T22:55:50.737Z,48.78
2023-06-11T22:58:18.372Z,52.08
2023-06-11T23:00:46.230Z,43.83
2023-06-11T23:03:14.106Z,43.97
2023-06-11T23:05:41.846Z,47.67
2023-06-11T23:08:09.424Z,47.85
2023-06-11T23:10:37.105Z,50.25
2023-06-11T23:13:04.747Z,50.38
2023-06-11T23:15:32.611Z,47.58
2023-06-11T23:18:06.108Z,49.80
2023-06-11T23:20:36.055Z,51.67
2023-06-11T23:23:06.883Z,49.13
2023-06-11T23:25:34.902Z,47.55
2023-06-11T23:28:03.016Z,44.20
2023-06-11T23:30:30.702Z,43.78
2023-06-11T23:33:01.157Z,41.65
2023-06-11T23:35:28.953Z,43.13
2023-06-11T23:37:57.652Z,42.85
2023-06-11T23:40:25.490Z,45.63
2023-06-11T23:42:53.231Z,43.55
2023-06-11T23:45:21.042Z,46.45
2023-06-11T23:47:48.630Z,43.80
2023-06-11T23:50:16.537Z,40.42
2023-06-11T23:52:44.266Z,46.50
2023-06-11T23:55:11.935Z,41.65
2023-06-11T23:57:40.298Z,50.67
